地図

経路データ

SID SEASON NUMBER BASIN SUBBASIN NAME ISO_TIME NATURE LAT LON WMO_WIND WMO_PRES WMO_AGENCY TRACK_TYPE DIST2LAND LANDFALL IFLAG USA_AGENCY USA_ATCF_ID USA_LAT USA_LON USA_RECORD USA_STATUS USA_WIND USA_PRES USA_SSHS USA_R34_NE USA_R34_SE USA_R34_SW USA_R34_NW USA_R50_NE USA_R50_SE USA_R50_SW USA_R50_NW USA_R64_NE USA_R64_SE USA_R64_SW USA_R64_NW USA_POCI USA_ROCI USA_RMW USA_EYE TOKYO_LAT TOKYO_LON TOKYO_GRADE TOKYO_WIND TOKYO_PRES TOKYO_R50_DIR TOKYO_R50_LONG TOKYO_R50_SHORT TOKYO_R30_DIR TOKYO_R30_LONG TOKYO_R30_SHORT TOKYO_LAND CMA_LAT CMA_LON CMA_CAT CMA_WIND CMA_PRES HKO_LAT HKO_LON HKO_CAT HKO_WIND HKO_PRES NEWDELHI_LAT NEWDELHI_LON NEWDELHI_GRADE NEWDELHI_WIND NEWDELHI_PRES NEWDELHI_CI NEWDELHI_DP NEWDELHI_POCI REUNION_LAT REUNION_LON REUNION_TYPE REUNION_WIND REUNION_PRES REUNION_TNUM REUNION_CI REUNION_RMW REUNION_R34_NE REUNION_R34_SE REUNION_R34_SW REUNION_R34_NW REUNION_R50_NE REUNION_R50_SE REUNION_R50_SW REUNION_R50_NW REUNION_R64_NE REUNION_R64_SE REUNION_R64_SW REUNION_R64_NW BOM_LAT BOM_LON BOM_TYPE BOM_WIND BOM_PRES BOM_TNUM BOM_CI BOM_RMW BOM_R34_NE BOM_R34_SE BOM_R34_SW BOM_R34_NW BOM_R50_NE BOM_R50_SE BOM_R50_SW BOM_R50_NW BOM_R64_NE BOM_R64_SE BOM_R64_SW BOM_R64_NW BOM_ROCI BOM_POCI BOM_EYE BOM_POS_METHOD BOM_PRES_METHOD NADI_LAT NADI_LON NADI_CAT NADI_WIND NADI_PRES WELLINGTON_LAT WELLINGTON_LON WELLINGTON_WIND WELLINGTON_PRES DS824_LAT DS824_LON DS824_STAGE DS824_WIND DS824_PRES TD9636_LAT TD9636_LON TD9636_STAGE TD9636_WIND TD9636_PRES TD9635_LAT TD9635_LON TD9635_WIND TD9635_PRES TD9635_ROCI NEUMANN_LAT NEUMANN_LON NEUMANN_CLASS NEUMANN_WIND NEUMANN_PRES MLC_LAT MLC_LON MLC_CLASS MLC_WIND MLC_PRES USA_GUST BOM_GUST BOM_GUST_PER REUNION_GUST REUNION_GUST_PER USA_SEAHGT USA_SEARAD_NE USA_SEARAD_SE USA_SEARAD_SW USA_SEARAD_NW STORM_SPEED STORM_DIR
2022035S18084 2022 7 SI MM CLIFF 2022-02-04 06:00:00 NR -17.8000 83.8000 PROVISIONAL 2444 2444 O_____________ tcvitals SI102022 -17.8000 83.8000 35 998 0 50 45 20 1004 210 50 5 211
2022035S18084 2022 7 SI MM CLIFF 2022-02-04 09:00:00 NR -18.0000 83.6751 PROVISIONAL 2467 2467 P_____________ SI102022 -18.0000 83.6751 35 997 0 55 55 22 1004 210 55 4 205
2022035S18084 2022 7 SI MM CLIFF 2022-02-04 12:00:00 NR -18.2000 83.6000 PROVISIONAL 2490 2490 O_____________ tcvitals SI102022 -18.2000 83.6000 35 996 0 55 60 65 25 1004 210 60 4 189
2022035S18084 2022 7 SI MM CLIFF 2022-02-04 15:00:00 NR -18.4000 83.5999 PROVISIONAL 2507 2507 P_____________ SI102022 -18.4000 83.5999 40 994 0 145 82 1005 230 50 4 0
2022035S18084 2022 7 SI MM CLIFF 2022-02-04 18:00:00 NR -18.6000 83.6000 PROVISIONAL 2523 2523 O_____________ tcvitals SI102022 -18.6000 83.6000 45 992 0 230 100 1006 250 40 4 196
2022035S18084 2022 7 SI MM CLIFF 2022-02-04 21:00:00 NR -18.8000 83.4777 PROVISIONAL 2546 2546 P_____________ SI102022 -18.8000 83.4777 42 994 0 192 95 1006 250 40 4 205
2022035S18084 2022 7 SI MM CLIFF 2022-02-05 00:00:00 NR -19.0000 83.4000 PROVISIONAL 2570 2570 O_____________ tcvitals SI102022 -19.0000 83.4000 39 996 0 126 155 90 80 1006 250 40 3 170
2022035S18084 2022 7 SI MM CLIFF 2022-02-05 03:00:00 NR -19.1401 83.5349 PROVISIONAL 2571 2571 P_____________ SI102022 -19.1401 83.5349 39 996 0 110 127 87 77 1006 250 40 5 145
2022035S18084 2022 7 SI MM CLIFF 2022-02-05 06:00:00 NR -19.4000 83.7000 PROVISIONAL 2582 2582 O_____________ tcvitals SI102022 -19.4000 83.7000 39 997 0 95 100 85 75 1006 250 40 9 164
2022035S18084 2022 7 SI MM CLIFF 2022-02-05 09:00:00 NR -19.9923 83.7896 PROVISIONAL 2626 2626 P_____________ SI102022 -19.9923 83.7896 37 996 0 90 127 100 72 1004 225 40 12 179
2022035S18084 2022 7 SI MM CLIFF 2022-02-05 12:00:00 NR -20.6000 83.7000 PROVISIONAL 2683 2662 O_____________ tcvitals SI102022 -20.6000 83.7000 35 996 0 85 155 115 70 1003 200 40 10 204
2022035S18084 2022 7 SI MM CLIFF 2022-02-05 15:00:00 NR -20.9324 83.3478 PROVISIONAL 2651 2598 P_____________ SI102022 -20.9324 83.3478 35 997 0 125 120 1004 195 40 10 239
2022035S18084 2022 7 SI MM CLIFF 2022-02-05 18:00:00 NR -21.1000 82.8000 PROVISIONAL 2598 2536 O_____________ tcvitals SI102022 -21.1000 82.8000 35 999 0 95 126 1006 190 40 11 262
2022035S18084 2022 7 SI MM CLIFF 2022-02-05 21:00:00 NR -21.0900 82.1859 PROVISIONAL 2536 2463 P_____________ SI102022 -21.0900 82.1859 35 998 0 127 103 1005 180 45 12 265
2022035S18084 2022 7 SI MM CLIFF 2022-02-06 00:00:00 NR -21.2000 81.5000 PROVISIONAL 2463 2390 O_____________ tcvitals SI102022 -21.2000 81.5000 35 998 0 160 80 1005 170 50 15 241
2022035S18084 2022 7 SI MM CLIFF 2022-02-06 03:00:00 NR -21.8207 80.7532 PROVISIONAL 2390 2319 P_____________ SI102022 -21.8207 80.7532 35 1000 0 145 85 1006 170 52 18 225
2022035S18084 2022 7 SI MM CLIFF 2022-02-06 06:00:00 NR -22.5000 80.1000 PROVISIONAL 2319 2279 O_____________ tcvitals SI102022 -22.5000 80.1000 35 1002 0 130 90 1008 170 55 14 223
2022035S18084 2022 7 SI MM CLIFF 2022-02-06 09:00:00 NR -22.8296 79.7260 PROVISIONAL 2279 2260 P_____________ SI102022 -22.8296 79.7260 35 1002 0 8 230
2022035S18084 2022 7 SI MM CLIFF 2022-02-06 12:00:00 NR -22.9960 79.4513 PROVISIONAL 2260 2230 I_____________ tcvitals SI102022 -22.9960 79.4513 35 1002 0 6 243
2022035S18084 2022 7 SI MM CLIFF 2022-02-06 15:00:00 NR -23.0970 79.1537 PROVISIONAL 2230 2180 P_____________ SI102022 -23.0970 79.1537 35 1002 0 7 254
2022035S18084 2022 7 SI MM CLIFF 2022-02-06 18:00:00 NR -23.2000 78.7000 PROVISIONAL 2180 2100 O_____________ tcvitals SI102022 -23.2000 78.7000 35 1002 0 75 126 1009 150 55 12 254
2022035S18084 2022 7 SI MM CLIFF 2022-02-06 21:00:00 NR -23.4363 77.8843 PROVISIONAL 2100 2013 P_____________ SI102022 -23.4363 77.8843 32 1002 -1 1008 155 55 16 252
2022035S18084 2022 7 SI MM CLIFF 2022-02-07 00:00:00 NR -23.7000 77.0000 PROVISIONAL 2013 1955 O_____________ tcvitals SI102022 -23.7000 77.0000 29 1002 -1 1007 160 55 15 251
2022035S18084 2022 7 SI MM CLIFF 2022-02-07 03:00:00 NR -23.9169 76.3261 PROVISIONAL 1945 1899 P_____________ SI102022 -23.9169 76.3261 29 1002 -1 1007 160 55 12 250
2022035S18084 2022 7 SI MM CLIFF 2022-02-07 06:00:00 NR -24.1000 75.8000 PROVISIONAL 1899 O_____________ tcvitals SI102022 -24.1000 75.8000 29 1002 -1 1007 160 55 10 249

IBTrACS Databaseについて

本データベースは、米国NOAAが公開する1842年以降の世界の熱帯低気圧のベストトラックデータアーカイブInternational Best Track Archive for Climate Stewardship (IBTrACS)を、ウェブで閲覧しやすい形式に変換したものです。

最終更新日:2022-05-26